Aeroporto :
LOGIN :

Iscrizione | Disclaimer

   EN    FR    IT 

 










Sommario :    VFR   VFR Marginale   IFR   IFR Intensivo   IFR Molto Intensivo
Visibilità : 
Base nubi : 
>= 8 km
>= 3000ft
5 / 8 km
1000 / 3000 ft
1500m / 5 km
500 / 1000 ft
800 / 1500m
200 / 500 ft
< 800m
< 200 ft
Simboli :   Temporali  Nebbia  Neve Forte  Precipitazioni Forti  Vento > 20 kt
SIGMETs :   Varie  Temporali  Ghiacco  Turbolenza  Onda orograficha  Ceneri Vulcaniche






- Altitudine del aeroporto : 1299 ft


EDTY - Adolf Würth

ULTIMO METAR :
  • 250250Z AUTO 08006KT 9999 // NCD 12/11 Q1016

METARs OBSOLETI :
  • 250220Z AUTO 09006KT 9999 // NCD 13/11 Q1016
  • 250150Z AUTO 09006KT 9999 // NCD 13/11 Q1016
  • 250120Z AUTO 10007KT 9999 // NCD 13/12 Q1016
  • 250050Z AUTO 09007KT 9999 // NCD 14/12 Q1016
  • 250020Z AUTO 10006KT 9999 // NCD 14/12 Q1017
  • 242350Z AUTO 08006KT 9999 // NCD 15/12 Q1017
  • 242320Z AUTO 08004KT 9999 // FEW002/// 16/12 Q1017
  • 242250Z AUTO 09004KT 9999 // NCD 17/13 Q1017

Previsioni scadute.



MetMap, La meteo Aeronautica in un colpo d'occhio ! - Copyright ORBIFLY Dicembre 2007 - Disclaimer

ORBIFLY MET'MAP TEAM :

Programmazione e sviluppo : Alexandra Zaïnal
Concezione : Baudouin d'Aumeries
Supporto tecnico e logistico : Manuel Goepfert
Aiuto : Marc-Olivier Méhu
Aiuto per la traduzione : Arnaldo La Scala




FONTI E CREDITI :

   NOAA